createdAt,value
2023-01-15T00:57:19.468Z,69.80
2023-01-15T00:59:47.033Z,62.60
2023-01-15T01:02:14.109Z,73.80
2023-01-15T01:04:41.723Z,67.30
2023-01-15T01:07:08.787Z,76.20
2023-01-15T01:09:35.967Z,65.60
2023-01-15T01:12:03.270Z,66.60
2023-01-15T01:14:30.279Z,73.80
2023-01-15T01:16:57.208Z,84.80
2023-01-15T01:19:24.416Z,74.30
2023-01-15T01:21:51.671Z,81.20
2023-01-15T01:24:23.325Z,79.50
2023-01-15T01:29:20.979Z,92.40
2023-01-15T01:31:47.979Z,88.30
2023-01-15T01:34:15.066Z,91.00
2023-01-15T01:36:42.862Z,91.60
2023-01-15T01:39:14.415Z,95.40
2023-01-15T01:44:37.527Z,89.30
2023-01-15T01:47:07.108Z,89.70
2023-01-15T01:49:34.184Z,81.80
2023-01-15T01:52:03.919Z,84.70
2023-01-15T01:54:31.339Z,76.10
2023-01-15T01:56:58.598Z,81.50
2023-01-15T01:59:25.536Z,77.00
2023-01-15T02:01:53.404Z,73.30
2023-01-15T02:04:21.458Z,82.50
2023-01-15T02:06:48.427Z,76.90
2023-01-15T02:09:15.611Z,70.90
2023-01-15T02:11:42.574Z,73.80
2023-01-15T02:14:18.615Z,77.80
2023-01-15T02:16:49.770Z,76.80
2023-01-15T02:19:38.481Z,77.20
2023-01-15T02:22:38.504Z,75.90
2023-01-15T02:25:16.876Z,76.80
2023-01-15T02:27:49.825Z,73.20
2023-01-15T02:30:23.167Z,72.00
2023-01-15T02:33:00.567Z,72.20
2023-01-15T02:35:31.401Z,66.80
2023-01-15T02:38:00.432Z,57.50
2023-01-15T02:40:27.596Z,65.60
2023-01-15T02:42:54.936Z,64.10
2023-01-15T02:45:30.740Z,62.40
2023-01-15T02:48:19.991Z,58.70
2023-01-15T02:50:55.933Z,68.40
2023-01-15T02:53:25.523Z,71.50
2023-01-15T02:55:55.809Z,63.80
2023-01-15T02:58:28.665Z,61.80
2023-01-15T03:00:56.976Z,62.10
2023-01-15T03:03:42.487Z,66.60
2023-01-15T03:06:37.422Z,61.80
2023-01-15T03:09:05.453Z,67.80
2023-01-15T03:11:34.488Z,62.40
2023-01-15T03:14:04.698Z,67.40
2023-01-15T03:16:59.931Z,70.10
2023-01-15T03:19:52.494Z,72.20
2023-01-15T03:22:23.712Z,78.70
2023-01-15T03:24:55.877Z,73.50
2023-01-15T03:27:23.033Z,73.50
2023-01-15T03:30:20.681Z,74.20
2023-01-15T03:32:49.358Z,77.70
2023-01-15T03:35:56.306Z,75.00
2023-01-15T03:38:47.025Z,80.10
2023-01-15T03:42:04.455Z,81.30
2023-01-15T03:44:53.006Z,69.60
2023-01-15T03:47:27.251Z,73.80
2023-01-15T03:49:58.281Z,78.00
2023-01-15T03:53:04.707Z,76.80
2023-01-15T03:56:08.203Z,67.70
2023-01-15T03:58:51.375Z,67.20
2023-01-15T04:01:24.896Z,71.90
2023-01-15T04:03:52.139Z,73.10
2023-01-15T04:06:22.173Z,75.30
2023-01-15T04:08:49.145Z,82.90
2023-01-15T04:11:22.687Z,78.50
2023-01-15T04:13:51.808Z,80.40
2023-01-15T04:16:38.985Z,76.20
2023-01-15T04:19:06.703Z,88.10
2023-01-15T04:21:35.720Z,76.10
2023-01-15T04:24:02.646Z,78.10
2023-01-15T04:26:29.707Z,80.90
2023-01-15T04:28:56.904Z,75.30
2023-01-15T04:31:23.969Z,78.60
2023-01-15T04:33:50.933Z,78.10
2023-01-15T04:36:17.931Z,77.70
2023-01-15T04:38:45.101Z,74.80
2023-01-15T04:41:30.562Z,90.40
2023-01-15T04:44:06.678Z,78.80
2023-01-15T04:46:38.633Z,77.90
2023-01-15T04:49:06.640Z,81.70
2023-01-15T04:51:33.640Z,74.50
2023-01-15T04:54:03.069Z,84.10
2023-01-15T04:56:30.074Z,80.10
2023-01-15T04:59:00.276Z,73.00
2023-01-15T05:01:27.329Z,75.70
2023-01-15T05:03:54.280Z,76.40
2023-01-15T05:06:21.333Z,80.90
2023-01-15T05:08:48.326Z,76.60
2023-01-15T05:11:15.311Z,84.80
2023-01-15T05:13:42.273Z,86.80
2023-01-15T05:16:17.306Z,85.20
2023-01-15T05:18:44.367Z,78.40
2023-01-15T05:21:25.196Z,90.60
2023-01-15T05:23:54.103Z,85.90
2023-01-15T05:26:21.671Z,88.90
2023-01-15T05:28:48.858Z,82.70
2023-01-15T05:31:17.148Z,90.60
2023-01-15T05:33:44.546Z,85.10
2023-01-15T05:36:12.896Z,97.60
2023-01-15T05:38:39.953Z,86.40
2023-01-15T05:41:26.419Z,85.10
2023-01-15T05:43:53.663Z,95.00
2023-01-15T05:46:20.728Z,83.70
2023-01-15T05:48:47.735Z,93.70
2023-01-15T05:51:14.823Z,87.20
2023-01-15T05:53:41.836Z,91.20
2023-01-15T05:56:08.884Z,89.00
2023-01-15T05:58:35.818Z,87.00
2023-01-15T06:01:07.456Z,90.20
2023-01-15T06:03:34.793Z,88.50
2023-01-15T06:06:01.797Z,95.40
2023-01-15T06:08:28.775Z,86.40
2023-01-15T06:10:55.809Z,85.20
2023-01-15T06:13:22.992Z,81.80
2023-01-15T06:15:50.041Z,87.20
2023-01-15T06:18:17.004Z,82.40
2023-01-15T06:20:44.018Z,85.30
2023-01-15T06:23:10.979Z,81.00
2023-01-15T06:25:38.036Z,82.00
2023-01-15T06:28:05.432Z,86.90
2023-01-15T06:30:32.889Z,72.50
2023-01-15T06:32:59.832Z,80.60
2023-01-15T06:35:26.797Z,80.60
2023-01-15T06:37:53.710Z,82.00
2023-01-15T06:40:20.698Z,85.00
2023-01-15T06:43:06.259Z,75.70
2023-01-15T06:46:01.054Z,70.10
2023-01-15T06:48:28.078Z,68.60
2023-01-15T06:50:54.972Z,74.30
2023-01-15T06:53:21.949Z,76.40
2023-01-15T06:55:48.950Z,74.70
2023-01-15T10:27:48.890Z,50.00
2023-01-15T10:30:24.942Z,47.50
2023-01-15T10:33:03.595Z,46.80
2023-01-15T10:35:35.045Z,42.40
2023-01-15T10:38:28.550Z,43.90
2023-01-15T10:41:17.372Z,35.30
2023-01-15T10:43:49.263Z,42.80
2023-01-15T10:46:38.492Z,34.90
2023-01-15T10:49:13.672Z,38.20
2023-01-15T10:52:04.574Z,37.10
2023-01-15T10:54:42.792Z,39.60
2023-01-15T10:57:16.646Z,39.30
2023-01-15T10:59:52.840Z,41.10
2023-01-15T11:02:19.960Z,39.40
2023-01-15T11:04:46.993Z,52.00
2023-01-15T11:07:14.223Z,53.80
2023-01-15T11:09:41.596Z,52.40
2023-01-15T11:12:27.003Z,55.40
2023-01-15T11:15:12.499Z,53.30
2023-01-15T11:18:02.567Z,55.80
2023-01-15T11:20:45.759Z,53.40
2023-01-15T11:23:14.747Z,63.60
2023-01-15T11:25:52.551Z,60.50
2023-01-15T11:28:30.029Z,60.90
2023-01-15T11:30:57.072Z,58.20
2023-01-15T11:33:26.867Z,61.90
2023-01-15T11:35:58.877Z,70.50
2023-01-15T11:38:30.212Z,60.60
2023-01-15T11:40:59.900Z,60.80
2023-01-15T11:43:46.907Z,62.20
2023-01-15T11:46:49.466Z,58.00
2023-01-15T11:49:36.415Z,53.10
2023-01-15T11:52:05.238Z,53.40
2023-01-15T11:54:32.976Z,54.80
2023-01-15T11:56:59.929Z,65.70
2023-01-15T11:59:27.091Z,59.00
2023-01-15T12:02:00.038Z,62.30
2023-01-15T12:04:31.544Z,60.50
2023-01-15T12:06:59.261Z,57.20
2023-01-15T12:09:54.232Z,58.50
2023-01-15T12:12:41.082Z,58.10
2023-01-15T12:15:26.606Z,58.90
2023-01-15T12:18:08.798Z,62.90
2023-01-15T12:21:00.894Z,57.40
2023-01-15T12:24:01.933Z,51.10
2023-01-15T12:26:38.736Z,59.60
2023-01-15T12:29:07.195Z,57.50
2023-01-15T12:31:40.569Z,54.50
2023-01-15T12:34:28.631Z,64.50
2023-01-15T12:37:06.818Z,67.00
2023-01-15T12:39:46.636Z,64.00
2023-01-15T12:42:34.713Z,77.40
2023-01-15T12:45:07.950Z,67.90
2023-01-15T12:48:03.687Z,73.80
2023-01-15T12:50:45.335Z,69.40
2023-01-15T12:55:42.938Z,65.50
2023-01-15T12:58:27.093Z,69.70
2023-01-15T13:01:01.205Z,71.50
2023-01-15T13:03:30.546Z,70.30
2023-01-15T13:06:02.793Z,76.00
2023-01-15T13:08:38.887Z,77.30
2023-01-15T13:11:07.508Z,79.30
2023-01-15T13:13:36.568Z,81.40
2023-01-15T13:16:17.285Z,75.20
2023-01-15T13:18:50.745Z,73.90
2023-01-15T13:21:18.455Z,78.20
2023-01-15T13:23:57.608Z,83.10
2023-01-15T13:27:15.767Z,74.90
2023-01-15T13:29:45.653Z,74.10
2023-01-15T13:32:17.258Z,75.00
2023-01-15T13:37:25.059Z,68.40
2023-01-15T13:39:54.001Z,65.20
2023-01-15T13:42:35.443Z,63.70
2023-01-15T13:45:28.088Z,62.80
2023-01-15T13:48:05.793Z,65.60
2023-01-15T13:50:38.173Z,58.40
2023-01-15T13:53:13.974Z,67.40
2023-01-15T13:55:42.320Z,66.20
2023-01-15T13:58:24.514Z,59.70
2023-01-15T14:01:17.897Z,71.20
2023-01-15T14:04:04.000Z,64.90
2023-01-15T14:06:44.002Z,65.10
2023-01-15T14:09:26.414Z,64.70
2023-01-15T14:12:02.945Z,67.30
2023-01-15T14:14:45.201Z,70.10
2023-01-15T14:17:57.761Z,70.10
2023-01-15T14:20:34.169Z,74.30
2023-01-15T14:23:16.860Z,75.80
2023-01-15T14:26:05.204Z,80.00
2023-01-15T14:28:54.114Z,81.70
2023-01-15T14:31:42.979Z,72.90
2023-01-15T14:34:14.217Z,67.90
2023-01-15T14:36:51.544Z,74.50
2023-01-15T14:39:31.791Z,82.90
2023-01-15T14:42:19.415Z,74.60
2023-01-15T14:44:46.483Z,72.50
2023-01-15T14:47:33.814Z,75.50
2023-01-15T14:50:38.559Z,70.60
2023-01-15T14:53:11.538Z,75.00
2023-01-15T14:55:44.264Z,69.30
2023-01-15T14:58:48.503Z,72.40
2023-01-15T15:01:21.648Z,68.80
2023-01-15T15:03:58.092Z,66.10
2023-01-15T15:06:26.601Z,74.30
2023-01-15T15:08:55.545Z,73.60
2023-01-15T15:11:43.987Z,69.80
2023-01-15T15:14:11.826Z,73.90
2023-01-15T15:16:43.965Z,68.60
2023-01-15T15:19:26.231Z,68.80
2023-01-15T15:21:53.169Z,68.40
2023-01-15T15:24:24.563Z,68.60
2023-01-15T15:26:51.554Z,64.90
2023-01-15T15:29:20.206Z,59.30
2023-01-15T15:31:49.483Z,65.10
2023-01-15T15:34:22.778Z,67.80
2023-01-15T15:36:49.765Z,65.20
2023-01-15T15:39:24.694Z,69.60
2023-01-15T15:42:10.120Z,68.40
2023-01-15T15:45:14.875Z,59.90
2023-01-15T15:48:01.035Z,56.00
2023-01-15T15:50:33.146Z,59.20
2023-01-15T15:53:04.482Z,57.80
2023-01-15T15:55:39.486Z,57.40
2023-01-15T15:58:06.479Z,54.00
2023-01-15T16:00:34.937Z,53.40
2023-01-15T16:03:05.891Z,55.00
2023-01-15T16:05:33.122Z,59.50
2023-01-15T16:08:16.800Z,49.70
2023-01-15T16:10:43.911Z,41.00
2023-01-15T16:13:23.152Z,44.90
2023-01-15T16:15:55.905Z,37.60
2023-01-15T16:18:28.159Z,39.30
2023-01-15T16:20:55.127Z,43.20
2023-01-15T16:23:29.741Z,49.80
2023-01-15T16:26:01.460Z,43.30
2023-01-15T16:28:36.310Z,48.80
2023-01-15T16:31:03.692Z,50.80
2023-01-15T16:33:30.698Z,50.50
2023-01-15T16:35:58.560Z,61.40
2023-01-15T16:38:25.697Z,62.80
2023-01-15T16:40:52.656Z,53.50
2023-01-15T16:43:24.701Z,71.70
2023-01-15T16:46:16.826Z,61.10
2023-01-15T16:48:48.135Z,62.20
2023-01-15T16:51:27.155Z,52.60
2023-01-15T16:53:54.210Z,54.90
2023-01-15T16:56:37.711Z,56.90
2023-01-15T16:59:06.203Z,63.60
2023-01-15T17:01:42.447Z,57.00
2023-01-15T17:04:28.510Z,58.90
2023-01-15T17:07:14.892Z,57.50
2023-01-15T17:09:50.362Z,60.80
2023-01-15T17:12:42.297Z,59.50
2023-01-15T17:15:15.610Z,51.30
2023-01-15T17:17:46.165Z,49.10
2023-01-15T17:20:13.578Z,58.90
2023-01-15T17:22:41.468Z,52.90
2023-01-15T17:25:21.897Z,45.80
2023-01-15T17:27:48.927Z,46.60
2023-01-15T17:30:16.683Z,47.10
2023-01-15T17:32:43.669Z,48.00
2023-01-15T17:35:32.834Z,52.10
2023-01-15T17:37:59.826Z,53.00
2023-01-15T17:40:27.248Z,58.40
2023-01-15T17:42:54.187Z,46.00
2023-01-15T17:45:28.987Z,56.30
2023-01-15T17:47:56.655Z,65.40
2023-01-15T17:50:24.373Z,66.30
2023-01-15T17:52:51.500Z,53.10
2023-01-15T17:55:39.543Z,54.80
2023-01-15T17:58:25.139Z,57.50
2023-01-15T18:01:10.627Z,60.70
2023-01-15T18:03:57.494Z,58.00
2023-01-15T18:06:24.453Z,64.50
2023-01-15T18:08:55.691Z,66.10
2023-01-15T18:11:23.518Z,72.60
2023-01-15T18:13:50.602Z,67.20
2023-01-15T18:16:17.580Z,68.70
2023-01-15T18:18:44.697Z,60.90
2023-01-15T18:21:11.647Z,62.40
2023-01-15T18:23:39.752Z,63.00
2023-01-15T18:26:07.393Z,68.20
2023-01-15T18:28:35.351Z,61.40
2023-01-15T18:31:02.975Z,71.30
2023-01-15T18:33:30.167Z,63.80
2023-01-15T18:36:13.865Z,66.10
2023-01-15T18:38:43.890Z,82.40
2023-01-15T18:41:36.124Z,75.30
2023-01-15T18:44:26.485Z,65.70
2023-01-15T18:46:58.792Z,81.40
2023-01-15T18:49:26.201Z,70.30
2023-01-15T18:52:11.756Z,65.00
2023-01-15T18:54:38.801Z,69.30
2023-01-15T18:57:05.863Z,65.70
2023-01-15T18:59:33.614Z,65.00
2023-01-15T19:02:00.757Z,74.90
2023-01-15T19:04:27.940Z,61.00
2023-01-15T19:06:54.952Z,61.40
2023-01-15T19:09:24.324Z,64.90
2023-01-15T19:11:52.189Z,70.00
2023-01-15T19:14:38.299Z,66.50
2023-01-15T19:17:23.819Z,59.40
2023-01-15T19:19:50.877Z,64.90
2023-01-15T19:22:36.224Z,59.50
2023-01-15T19:25:03.322Z,60.90
2023-01-15T19:27:30.281Z,53.80
2023-01-15T19:29:58.323Z,57.70
2023-01-15T19:32:25.279Z,54.00
2023-01-15T19:34:53.218Z,61.20
2023-01-15T19:37:21.152Z,55.10
2023-01-15T19:39:48.129Z,56.20
2023-01-15T19:42:33.599Z,53.10
2023-01-15T19:45:19.146Z,64.20
2023-01-15T19:48:04.779Z,57.30
2023-01-15T19:50:35.645Z,46.90
2023-01-15T19:53:02.783Z,58.20
2023-01-15T19:55:30.039Z,61.00
2023-01-15T19:58:01.353Z,68.00
2023-01-15T20:00:28.620Z,69.40
2023-01-15T20:02:56.537Z,71.10
2023-01-15T20:05:24.124Z,68.40
2023-01-15T20:07:51.086Z,71.30
2023-01-15T20:10:19.684Z,76.00
2023-01-15T20:13:05.210Z,63.30
2023-01-15T20:15:32.391Z,52.10
2023-01-15T20:17:59.668Z,56.80
2023-01-15T20:20:26.685Z,54.00
2023-01-15T20:22:56.678Z,62.00
2023-01-15T20:25:26.619Z,62.20
2023-01-15T20:27:54.265Z,60.90
2023-01-15T20:30:24.631Z,65.00
2023-01-15T20:32:53.056Z,68.50
2023-01-15T20:35:22.605Z,64.00
2023-01-15T20:37:50.338Z,53.10
2023-01-15T20:40:20.950Z,49.50
2023-01-15T20:43:06.342Z,48.50
2023-01-15T20:45:33.664Z,51.70
2023-01-15T20:48:12.774Z,54.50
2023-01-15T20:51:00.832Z,44.60
2023-01-15T20:53:33.753Z,44.60
2023-01-15T20:56:01.909Z,43.40
2023-01-15T20:58:28.996Z,45.30
2023-01-15T21:01:02.215Z,41.50
2023-01-15T21:03:29.199Z,42.60
2023-01-15T21:05:59.358Z,43.60
2023-01-15T21:08:26.825Z,45.40
2023-01-15T21:10:54.309Z,42.30
2023-01-15T21:13:23.024Z,41.00
2023-01-15T21:15:58.243Z,43.60
2023-01-15T21:18:26.419Z,31.00
2023-01-15T21:20:53.575Z,36.00
2023-01-15T21:23:20.939Z,30.50
2023-01-15T21:25:48.004Z,37.80
2023-01-15T21:28:15.238Z,33.00
2023-01-15T21:30:42.562Z,33.10
2023-01-15T21:33:11.355Z,31.30
2023-01-15T21:35:40.278Z,33.80
2023-01-15T21:38:08.279Z,33.20
2023-01-15T21:40:38.522Z,35.40
2023-01-15T21:43:24.559Z,37.00
2023-01-15T21:45:51.782Z,30.90
2023-01-15T21:48:18.907Z,38.70
2023-01-15T21:50:45.941Z,30.30
2023-01-15T21:53:12.905Z,32.90
2023-01-15T21:55:39.869Z,35.30
2023-01-15T21:58:06.847Z,34.00
2023-01-15T22:00:33.847Z,34.40
